Time;durP1;ratioP1;P1;durP2;ratioP2;P2;SDS_P1;SDS_P2;PMS_P1;PMS_P2;Temp;Humidity;BMP_temperature;BMP_pressure;BME280_temperature;BME280_humidity;BME280_pressure;Samples;Min_cycle;Max_cycle;Signal;HPM_P1;HPM_P2
2022/04/26 03:36:47;;;;;;;;;;;;;;;5.65;85.51;100307.63;5033544;28;1831;-90
2022/04/26 03:39:12;;;;;;;;;;;;;;;5.76;85.49;100297.72;5025628;28;1359;-89
2022/04/26 03:41:37;;;;;;;;;;;;;;;5.83;84.70;100302.97;5031284;28;1821;-89
2022/04/26 03:44:03;;;;;;;;;;;;;;;5.77;83.89;100304.81;5011199;28;1497;-90
2022/04/26 03:46:28;;;;;;;;;;;;;;;5.79;85.57;100301.81;5032072;28;1821;-90
2022/04/26 03:48:53;;;;;;;;;;;;;;;5.63;84.48;100306.25;5044042;28;1886;-90
2022/04/26 03:51:18;;;;;;;;;;;;;;;5.52;84.98;100305.31;5036065;28;1031;-89
2022/04/26 03:53:43;;;;;;;;;;;;;;;5.52;86.00;100308.03;5033488;28;1576;-90
2022/04/26 03:56:08;;;;;;;;;;;;;;;5.40;84.10;100304.59;5017230;28;1577;-89
2022/04/26 03:58:34;;;;;;;;;;;;;;;5.46;84.50;100306.28;5019215;28;1767;-88
2022/04/26 04:00:59;;;;;;;;;;;;;;;5.50;84.06;100302.03;5042015;28;1459;-88
2022/04/26 04:03:25;;;;;;;;;;;;;;;5.44;82.75;100307.66;5038287;28;1531;-89
2022/04/26 04:05:50;;;;;;;;;;;;;;;5.28;81.91;100307.41;5035642;28;1321;-89
2022/04/26 04:08:15;;;;;;;;;;;;;;;5.17;82.88;100307.53;5043420;28;1963;-89
2022/04/26 04:10:40;;;;;;;;;;;;;;;5.17;82.63;100310.25;5038997;28;1544;-90
2022/04/26 04:13:05;;;;;;;;;;;;;;;5.18;82.59;100309.19;5026071;28;1473;-90
2022/04/26 04:15:31;;;;;;;;;;;;;;;5.22;83.25;100307.59;5053446;28;1530;-90
2022/04/26 04:17:56;;;;;;;;;;;;;;;5.10;82.60;100307.72;5024012;28;1549;-89
2022/04/26 04:20:21;;;;;;;;;;;;;;;5.03;83.42;100282.63;5033881;28;1357;-89
2022/04/26 04:22:48;;;;;;;;;;;;;;;5.25;82.91;100301.69;5018809;28;1592;-89
2022/04/26 04:25:13;;;;;;;;;;;;;;;5.17;82.04;100310.25;5033111;28;1193;-89
2022/04/26 04:27:38;;;;;;;;;;;;;;;5.02;83.27;100302.69;5040527;28;1756;-88
2022/04/26 04:30:04;;;;;;;;;;;;;;;5.18;82.81;100306.47;5053302;28;1885;-88
2022/04/26 04:32:29;;;;;;;;;;;;;;;5.24;82.46;100300.03;5036654;28;1190;-89
2022/04/26 04:34:55;;;;;;;;;;;;;;;5.13;82.89;100307.19;5028285;28;1264;-89
2022/04/26 04:37:20;;;;;;;;;;;;;;;5.10;83.18;100313.16;5029063;28;1040;-89
2022/04/26 04:39:45;;;;;;;;;;;;;;;5.32;82.71;100308.56;5045720;28;1551;-89
2022/04/26 04:42:11;;;;;;;;;;;;;;;5.44;82.76;100319.31;5036121;28;1317;-89
2022/04/26 04:44:36;;;;;;;;;;;;;;;5.50;81.77;100317.50;5031947;28;1782;-89
2022/04/26 04:47:01;;;;;;;;;;;;;;;5.56;81.67;100320.00;5018121;28;1572;-90
2022/04/26 04:49:26;;;;;;;;;;;;;;;5.54;81.53;100319.44;5043188;28;1890;-90
2022/04/26 04:51:53;;;;;;;;;;;;;;;5.53;82.10;100330.56;5018735;28;1449;-89
2022/04/26 04:54:18;;;;;;;;;;;;;;;5.63;81.81;100330.69;5022285;28;1513;-88
2022/04/26 04:56:44;;;;;;;;;;;;;;;5.61;82.81;100328.22;5000152;28;1497;-87
2022/04/26 04:59:09;;;;;;;;;;;;;;;5.56;82.32;100327.34;5041665;28;1724;-87
2022/04/26 05:01:34;;;;;;;;;;;;;;;5.61;82.74;100338.28;5034839;28;1631;-87
2022/04/26 05:03:59;;;;;;;;;;;;;;;5.57;82.24;100340.66;5016482;28;1619;-88
2022/04/26 05:06:24;;;;;;;;;;;;;;;5.63;83.00;100347.78;5034494;28;1465;-88
2022/04/26 05:08:49;;;;;;;;;;;;;;;5.64;83.01;100344.00;5026136;28;1902;-89
2022/04/26 05:11:15;;;;;;;;;;;;;;;5.68;83.59;100352.47;5037891;28;1432;-89
2022/04/26 05:13:40;;;;;;;;;;;;;;;5.65;83.53;100351.09;5030929;28;1445;-89
2022/04/26 05:16:05;;;;;;;;;;;;;;;5.61;83.39;100347.22;5042666;28;1436;-89
2022/04/26 05:18:31;;;;;;;;;;;;;;;5.66;84.27;100350.00;5039203;28;1803;-89
2022/04/26 05:20:56;;;;;;;;;;;;;;;5.66;84.56;100352.72;5018474;28;1629;-88
2022/04/26 05:26:07;;;;;;;;;;;;;;;5.81;84.03;100351.28;5016287;28;672;-88
2022/04/26 05:28:33;;;;;;;;;;;;;;;5.83;84.00;100358.09;5031162;28;1893;-88
2022/04/26 05:30:58;;;;;;;;;;;;;;;5.86;84.24;100356.78;5020373;28;1165;-88
2022/04/26 05:33:25;;;;;;;;;;;;;;;5.93;83.26;100352.81;5038452;28;1529;-88
2022/04/26 05:35:51;;;;;;;;;;;;;;;5.81;83.10;100362.97;5036534;28;1817;-88
2022/04/26 05:38:16;;;;;;;;;;;;;;;5.72;83.20;100364.47;5025786;28;1746;-88
2022/04/26 05:40:41;;;;;;;;;;;;;;;5.63;83.76;100364.09;5048499;28;1181;-88
2022/04/26 05:43:07;;;;;;;;;;;;;;;5.68;84.38;100360.63;5036758;28;1379;-89
2022/04/26 05:45:32;;;;;;;;;;;;;;;5.78;83.38;100359.94;5019652;28;1756;-89
2022/04/26 05:47:57;;;;;;;;;;;;;;;5.83;83.00;100354.56;5044028;28;1357;-88
2022/04/26 05:50:23;;;;;;;;;;;;;;;5.90;83.36;100356.03;5025139;28;1955;-89
2022/04/26 05:52:48;;;;;;;;;;;;;;;5.93;83.41;100362.88;5021124;28;1421;-87
2022/04/26 05:55:13;;;;;;;;;;;;;;;5.99;82.78;100356.41;5048692;28;1390;-87
2022/04/26 05:57:39;;;;;;;;;;;;;;;6.02;82.71;100356.75;5033695;28;1378;-87
2022/04/26 06:00:05;;;;;;;;;;;;;;;6.11;82.98;100351.69;5034570;28;1500;-87
2022/04/26 06:02:30;;;;;;;;;;;;;;;6.11;82.48;100361.72;5042530;28;1535;-87
2022/04/26 06:04:55;;;;;;;;;;;;;;;6.10;84.26;100360.91;5032187;28;1475;-89
2022/04/26 06:07:21;;;;;;;;;;;;;;;6.15;84.24;100365.56;5016769;28;1458;-89
2022/04/26 06:09:46;;;;;;;;;;;;;;;6.19;84.29;100367.53;5025335;28;1894;-88
2022/04/26 06:12:11;;;;;;;;;;;;;;;6.30;84.16;100363.00;5016923;28;1637;-88
2022/04/26 06:14:37;;;;;;;;;;;;;;;6.34;84.70;100362.25;5024624;28;1485;-88
2022/04/26 06:17:03;;;;;;;;;;;;;;;6.31;83.89;100367.38;5021184;28;1161;-88
2022/04/26 06:19:28;;;;;;;;;;;;;;;6.20;84.47;100363.75;5011873;28;1545;-88
2022/04/26 06:21:53;;;;;;;;;;;;;;;6.19;84.88;100343.06;5016433;28;1489;-88
2022/04/26 06:24:19;;;;;;;;;;;;;;;6.09;85.03;100351.09;5024166;28;1791;-88
2022/04/26 06:26:44;;;;;;;;;;;;;;;6.13;85.45;100346.78;5038469;28;1378;-87
2022/04/26 06:29:09;;;;;;;;;;;;;;;6.16;85.06;100340.84;5016823;28;1894;-88
2022/04/26 06:31:34;;;;;;;;;;;;;;;6.12;85.80;100353.31;5034511;28;1039;-88
2022/04/26 06:33:59;;;;;;;;;;;;;;;6.04;86.63;100353.75;5037332;28;1488;-88
2022/04/26 06:36:24;;;;;;;;;;;;;;;6.09;86.70;100356.53;5041118;28;1030;-88
2022/04/26 06:38:50;;;;;;;;;;;;;;;6.32;86.87;100369.00;5029526;28;1515;-88
2022/04/26 06:41:15;;;;;;;;;;;;;;;6.58;85.84;100373.63;5030712;28;1810;-88
2022/04/26 06:43:40;;;;;;;;;;;;;;;6.77;85.41;100363.22;5029560;28;1379;-88
2022/04/26 06:46:05;;;;;;;;;;;;;;;6.91;85.19;100367.13;5043739;28;1075;-88
2022/04/26 06:48:30;;;;;;;;;;;;;;;6.96;84.66;100372.63;5038329;28;1902;-88
2022/04/26 06:50:56;;;;;;;;;;;;;;;6.96;85.08;100366.38;5024797;28;1503;-88
2022/04/26 06:53:21;;;;;;;;;;;;;;;7.04;84.37;100363.97;5030414;28;1410;-89
2022/04/26 06:55:46;;;;;;;;;;;;;;;7.12;84.70;100362.69;5022480;28;1564;-88
2022/04/26 06:58:12;;;;;;;;;;;;;;;7.11;84.31;100364.56;5033955;28;1509;-88
2022/04/26 07:00:37;;;;;;;;;;;;;;;7.15;84.68;100364.84;5033101;28;1508;-88
2022/04/26 07:03:02;;;;;;;;;;;;;;;7.17;84.62;100360.81;5015953;28;1707;-87
2022/04/26 07:05:27;;;;;;;;;;;;;;;7.22;84.63;100360.84;5041919;28;1656;-88
2022/04/26 07:07:52;;;;;;;;;;;;;;;7.22;84.56;100352.69;5049800;28;1353;-87
2022/04/26 07:10:18;;;;;;;;;;;;;;;7.16;84.79;100359.16;5044876;28;1906;-88
2022/04/26 07:12:43;;;;;;;;;;;;;;;7.21;84.76;100356.50;5016020;28;1564;-88
2022/04/26 07:15:08;;;;;;;;;;;;;;;7.27;84.61;100357.34;5015599;28;1386;-87
2022/04/26 07:17:33;;;;;;;;;;;;;;;7.30;84.49;100356.00;5016197;28;1481;-88
2022/04/26 07:19:58;;;;;;;;;;;;;;;7.33;84.32;100361.72;5032282;28;1441;-88
2022/04/26 07:22:24;;;;;;;;;;;;;;;7.27;85.10;100360.06;5032947;28;1952;-88
2022/04/26 07:24:50;;;;;;;;;;;;;;;7.39;85.34;100360.69;5033784;28;1384;-88
2022/04/26 07:27:16;;;;;;;;;;;;;;;7.47;84.66;100362.91;5031470;28;1405;-87
2022/04/26 07:29:43;;;;;;;;;;;;;;;7.57;84.32;100360.22;5029285;28;1889;-88
2022/04/26 07:32:08;;;;;;;;;;;;;;;7.60;84.65;100359.72;5049639;28;1238;-88
2022/04/26 07:34:34;;;;;;;;;;;;;;;7.70;84.47;100364.41;5037866;28;1379;-88
2022/04/26 07:37:00;;;;;;;;;;;;;;;7.75;84.13;100369.84;5036953;28;1449;-87
2022/04/26 07:39:25;;;;;;;;;;;;;;;7.88;83.55;100361.22;5036060;28;1337;-88
2022/04/26 07:41:50;;;;;;;;;;;;;;;8.01;83.21;100367.25;5034023;28;1839;-87
2022/04/26 07:44:16;;;;;;;;;;;;;;;8.11;83.06;100370.00;5014059;28;1544;-88
2022/04/26 07:46:43;;;;;;;;;;;;;;;8.18;83.01;100374.13;5040148;28;1292;-88
2022/04/26 07:49:09;;;;;;;;;;;;;;;8.25;83.49;100368.44;5052094;28;1963;-89
2022/04/26 07:51:34;;;;;;;;;;;;;;;8.31;83.09;100370.13;5052317;28;1261;-88
2022/04/26 07:53:59;;;;;;;;;;;;;;;8.37;82.91;100363.59;5050867;28;1328;-88
2022/04/26 07:56:27;;;;;;;;;;;;;;;8.44;82.76;100374.22;5015187;28;1356;-88
2022/04/26 07:58:52;;;;;;;;;;;;;;;8.51;82.41;100381.06;4996343;28;1347;-86
2022/04/26 08:01:18;;;;;;;;;;;;;;;8.57;81.95;100371.00;5012635;28;1201;-88
2022/04/26 08:03:43;;;;;;;;;;;;;;;8.62;82.12;100377.28;5036882;28;1309;-88
2022/04/26 08:06:08;;;;;;;;;;;;;;;8.68;81.58;100373.44;5032593;28;1702;-88
2022/04/26 08:08:33;;;;;;;;;;;;;;;8.77;81.48;100379.19;5035173;28;1898;-88
2022/04/26 08:11:00;;;;;;;;;;;;;;;8.85;81.07;100378.66;5011276;28;1435;-88
2022/04/26 08:13:25;;;;;;;;;;;;;;;8.91;80.86;100380.31;5040094;28;1587;-89
2022/04/26 08:15:50;;;;;;;;;;;;;;;8.94;81.21;100376.19;5046371;28;1577;-87
2022/04/26 08:18:16;;;;;;;;;;;;;;;9.01;81.25;100382.22;5040153;28;2130;-89
2022/04/26 08:20:41;;;;;;;;;;;;;;;9.06;81.29;100385.78;5047460;28;1754;-89
2022/04/26 08:23:06;;;;;;;;;;;;;;;9.16;81.08;100389.59;5026004;28;1262;-88
2022/04/26 08:28:16;;;;;;;;;;;;;;;9.35;80.33;100383.31;5029233;28;1596;-88
2022/04/26 08:30:41;;;;;;;;;;;;;;;9.43;81.44;100384.66;5015269;28;1991;-88
2022/04/26 08:33:06;;;;;;;;;;;;;;;9.45;80.74;100376.97;5012168;28;1430;-89
2022/04/26 08:35:31;;;;;;;;;;;;;;;9.47;80.95;100377.53;5015757;28;1783;-88
2022/04/26 08:37:57;;;;;;;;;;;;;;;9.61;80.80;100386.00;5047046;28;1122;-88
2022/04/26 08:40:22;;;;;;;;;;;;;;;9.74;80.25;100385.41;5045687;28;1217;-88
2022/04/26 08:42:48;;;;;;;;;;;;;;;9.82;79.83;100391.13;5025972;28;1375;-89
2022/04/26 08:45:14;;;;;;;;;;;;;;;9.90;78.65;100400.66;5018024;28;1599;-89
2022/04/26 08:53:16;;;;;;;;;;;;;;;10.24;78.60;100390.69;5036280;28;1525;-88
2022/04/26 08:55:43;;;;;;;;;;;;;;;10.26;77.83;100390.44;5040822;28;1332;-88
2022/04/26 08:58:11;;;;;;;;;;;;;;;10.16;78.47;100395.91;5038025;28;1118;-88
2022/04/26 09:00:37;;;;;;;;;;;;;;;10.10;77.79;100397.84;5032535;28;1347;-88
2022/04/26 11:30:22;;;;;;;;;;;;;;;13.04;59.35;100427.91;5052687;28;1882;-89
2022/04/26 11:32:48;;;;;;;;;;;;;;;13.12;60.25;100424.50;5036282;28;1508;-90
2022/04/26 11:35:14;;;;;;;;;;;;;;;13.15;59.37;100434.09;5046894;28;1410;-89
2022/04/26 11:37:47;;;;;;;;;;;;;;;13.17;59.11;100429.97;5031702;28;1418;-89
2022/04/26 11:40:20;;;;;;;;;;;;;;;13.26;59.79;100435.59;5052905;28;1554;-89
2022/04/26 11:42:45;;;;;;;;;;;;;;;13.31;58.57;100431.91;5036593;28;1351;-90
2022/04/26 11:45:10;;;;;;;;;;;;;;;13.41;57.84;100429.00;5038363;28;1429;-90
2022/04/26 11:47:48;;;;;;;;;;;;;;;13.50;57.46;100427.22;5035825;28;1178;-89
2022/04/26 11:50:20;;;;;;;;;;;;;;;13.62;57.75;100427.53;5035956;28;1898;-89
2022/04/26 11:52:46;;;;;;;;;;;;;;;13.64;57.96;100428.84;5036862;28;1841;-90
2022/04/26 11:55:24;;;;;;;;;;;;;;;13.62;57.74;100428.34;5035771;28;1445;-89
2022/04/26 11:57:49;;;;;;;;;;;;;;;13.58;57.91;100434.75;5052015;28;1638;-90
2022/04/26 12:00:21;;;;;;;;;;;;;;;13.49;59.37;100429.13;5028480;28;1400;-89
2022/04/26 12:02:47;;;;;;;;;;;;;;;13.46;57.17;100426.97;5036020;28;1496;-89
2022/04/26 12:05:13;;;;;;;;;;;;;;;13.53;57.58;100432.91;5034216;28;1413;-90
2022/04/26 12:07:38;;;;;;;;;;;;;;;13.61;59.49;100434.94;5033277;28;1643;-88
2022/04/26 12:10:03;;;;;;;;;;;;;;;13.58;59.32;100430.06;5034002;28;1945;-90
2022/04/26 12:12:29;;;;;;;;;;;;;;;13.60;59.50;100441.59;5056723;28;1668;-90
2022/04/26 12:14:55;;;;;;;;;;;;;;;13.67;59.21;100435.69;5038065;28;1628;-89
2022/04/26 12:17:29;;;;;;;;;;;;;;;13.75;59.17;100448.75;5039038;28;1754;-89
2022/04/26 12:19:54;;;;;;;;;;;;;;;13.75;58.46;100450.69;5033706;28;1567;-90
2022/04/26 12:22:19;;;;;;;;;;;;;;;13.74;57.81;100451.81;5039126;28;1726;-89
2022/04/26 12:24:49;;;;;;;;;;;;;;;13.78;57.62;100447.34;5039764;28;1459;-90
2022/04/26 12:27:15;;;;;;;;;;;;;;;13.84;58.22;100449.69;5057869;28;790;-89
2022/04/26 12:29:43;;;;;;;;;;;;;;;13.88;58.42;100449.88;5039991;28;1893;-90
2022/04/26 12:32:09;;;;;;;;;;;;;;;13.86;57.50;100455.72;5040101;28;1243;-90
2022/04/26 12:34:35;;;;;;;;;;;;;;;13.72;52.86;100463.09;5039955;28;1283;-90
2022/04/26 12:37:15;;;;;;;;;;;;;;;13.68;50.94;100461.28;5040212;28;1345;-91
2022/04/26 12:39:43;;;;;;;;;;;;;;;13.67;53.62;100454.97;5039590;28;1489;-90
2022/04/26 12:42:15;;;;;;;;;;;;;;;13.67;51.54;100452.22;5052455;28;1337;-90
2022/04/26 12:44:54;;;;;;;;;;;;;;;13.58;52.01;100454.00;5039665;28;1282;-90
2022/04/26 12:52:48;;;;;;;;;;;;;;;13.78;53.64;100448.13;5057025;28;1429;-90
2022/04/26 12:55:23;;;;;;;;;;;;;;;13.77;53.88;100449.28;5039129;28;1282;-90
2022/04/26 12:57:53;;;;;;;;;;;;;;;13.83;52.72;100450.81;5050346;28;1845;-90
2022/04/26 13:00:21;;;;;;;;;;;;;;;13.87;51.40;100451.81;5051135;28;1562;-90
2022/04/26 13:02:51;;;;;;;;;;;;;;;13.89;51.90;100446.84;5038366;28;1497;-90
2022/04/26 13:05:16;;;;;;;;;;;;;;;13.98;53.62;100445.00;5036666;28;1377;-90
2022/04/26 13:07:48;;;;;;;;;;;;;;;13.94;52.64;100444.00;5026771;28;1593;-90
2022/04/26 13:10:17;;;;;;;;;;;;;;;14.10;52.64;100446.47;5047809;28;1898;-89
2022/04/26 13:12:43;;;;;;;;;;;;;;;14.13;53.39;100451.34;5046937;28;1816;-89
2022/04/26 13:15:08;;;;;;;;;;;;;;;14.19;54.03;100456.47;5038950;28;1211;-90
2022/04/26 13:17:44;;;;;;;;;;;;;;;14.17;53.98;100460.63;5036529;28;1711;-91
2022/04/26 13:20:10;;;;;;;;;;;;;;;14.29;54.92;100447.97;5038112;28;1680;-90
2022/04/26 13:22:36;;;;;;;;;;;;;;;14.74;54.63;100457.25;5038799;28;1584;-90
2022/04/26 13:25:03;;;;;;;;;;;;;;;15.55;51.27;100450.97;5037511;28;1502;-91
2022/04/26 13:27:29;;;;;;;;;;;;;;;15.17;52.16;100456.00;5034654;28;1614;-90
2022/04/26 13:29:54;;;;;;;;;;;;;;;14.75;53.28;100456.13;5029870;28;1897;-90
2022/04/26 13:32:19;;;;;;;;;;;;;;;14.49;55.54;100457.78;5027425;28;1047;-90
2022/04/26 13:34:45;;;;;;;;;;;;;;;14.47;55.58;100459.22;5029812;28;1352;-90
2022/04/26 13:37:10;;;;;;;;;;;;;;;14.46;56.21;100463.09;5035739;28;1375;-90
2022/04/26 13:39:36;;;;;;;;;;;;;;;14.40;54.94;100465.13;5039153;28;1347;-90
2022/04/26 13:42:02;;;;;;;;;;;;;;;14.28;56.08;100462.88;5055417;28;1622;-90
2022/04/26 13:44:27;;;;;;;;;;;;;;;14.16;54.09;100462.56;5056419;28;1181;-90
2022/04/26 13:46:53;;;;;;;;;;;;;;;14.10;55.93;100458.28;5038883;28;938;-90
2022/04/26 13:49:18;;;;;;;;;;;;;;;14.01;56.87;100455.41;5038357;28;1898;-90
2022/04/26 13:51:43;;;;;;;;;;;;;;;14.03;56.66;100453.16;5031393;28;1583;-90
2022/04/26 13:54:08;;;;;;;;;;;;;;;14.02;57.25;100454.31;5044740;28;1361;-89
2022/04/26 13:56:34;;;;;;;;;;;;;;;13.94;55.85;100455.00;5053536;28;1527;-90
2022/04/26 13:58:59;;;;;;;;;;;;;;;13.88;56.74;100450.69;5027177;28;1481;-90
2022/04/26 14:01:24;;;;;;;;;;;;;;;13.93;57.61;100464.38;5035794;28;1630;-90
2022/04/26 14:03:49;;;;;;;;;;;;;;;13.98;58.55;100460.69;5033930;28;1290;-90
2022/04/26 14:06:18;;;;;;;;;;;;;;;13.92;58.55;100461.94;5054250;28;1399;-90
2022/04/26 14:08:47;;;;;;;;;;;;;;;13.92;58.92;100462.75;5037330;28;1397;-90
2022/04/26 14:11:13;;;;;;;;;;;;;;;13.92;59.19;100471.00;5051464;28;1956;-90
2022/04/26 14:21:47;;;;;;;;;;;;;;;13.84;59.82;100465.38;5031720;28;1386;-90
2022/04/26 14:21:51;;;;;;;;;;;;;;;13.63;58.01;100470.41;5053996;28;1891;-90
2022/04/26 14:24:17;;;;;;;;;;;;;;;13.63;58.25;100478.66;5037192;28;1397;-90
2022/04/26 14:26:51;;;;;;;;;;;;;;;13.61;57.35;100475.38;5054928;28;1761;-90
2022/04/26 14:29:16;;;;;;;;;;;;;;;13.61;56.27;100478.13;5045969;28;1963;-89
2022/04/26 14:31:42;;;;;;;;;;;;;;;13.69;57.76;100466.47;5023591;28;1230;-89
2022/04/26 14:34:08;;;;;;;;;;;;;;;13.78;59.34;100467.38;5028729;28;1870;-89
2022/04/26 14:36:33;;;;;;;;;;;;;;;13.94;57.26;100466.03;5037572;28;1778;-90
2022/04/26 14:38:58;;;;;;;;;;;;;;;14.08;55.33;100473.47;5055349;28;1444;-90
2022/04/26 14:41:23;;;;;;;;;;;;;;;14.15;58.69;100482.13;5034330;28;1002;-90
2022/04/26 14:43:48;;;;;;;;;;;;;;;14.18;56.33;100484.28;5051097;28;1774;-90
2022/04/26 14:46:14;;;;;;;;;;;;;;;14.09;55.84;100480.59;5035651;28;1774;-91
2022/04/26 14:48:39;;;;;;;;;;;;;;;13.90;56.24;100483.41;5034281;28;1676;-90
2022/04/26 14:51:04;;;;;;;;;;;;;;;13.76;57.43;100491.66;5031911;28;1898;-89
2022/04/26 14:53:29;;;;;;;;;;;;;;;13.79;58.62;100488.28;5035101;28;1774;-90
2022/04/26 14:55:57;;;;;;;;;;;;;;;13.68;57.05;100486.03;5040392;28;1468;-90
2022/04/26 14:58:23;;;;;;;;;;;;;;;13.56;58.43;100489.25;5037057;28;1314;-90
2022/04/26 15:00:48;;;;;;;;;;;;;;;13.55;58.48;100484.84;5014354;28;1617;-90
2022/04/26 15:03:14;;;;;;;;;;;;;;;13.50;56.94;100477.53;5037635;28;1347;-90
2022/04/26 15:05:39;;;;;;;;;;;;;;;13.48;58.67;100489.94;5038141;28;1398;-90
2022/04/26 15:10:50;;;;;;;;;;;;;;;13.49;57.98;100486.88;5040692;28;2001;-90
2022/04/26 15:18:49;;;;;;;;;;;;;;;13.80;58.39;100486.34;5055588;28;636;-90
2022/04/26 15:21:15;;;;;;;;;;;;;;;13.75;59.37;100487.28;5034543;28;1563;-88
2022/04/26 15:23:40;;;;;;;;;;;;;;;13.71;60.43;100491.72;5044634;28;1587;-90
2022/04/26 15:26:10;;;;;;;;;;;;;;;13.58;59.29;100498.84;5036007;28;1421;-89
2022/04/26 15:28:35;;;;;;;;;;;;;;;13.60;60.61;100517.78;5026255;28;1556;-89
2022/04/26 15:31:01;;;;;;;;;;;;;;;13.60;60.93;100537.88;5052457;28;1894;-90
2022/04/26 15:33:26;;;;;;;;;;;;;;;13.41;62.25;100547.25;5038662;28;1564;-89
2022/04/26 15:35:51;;;;;;;;;;;;;;;13.23;64.14;100552.44;5035644;28;1285;-89
2022/04/26 15:38:17;;;;;;;;;;;;;;;13.09;66.36;100557.00;5035909;28;1564;-88
2022/04/26 15:40:44;;;;;;;;;;;;;;;12.85;67.85;100548.78;5035990;28;1441;-89
2022/04/26 15:43:09;;;;;;;;;;;;;;;12.68;70.36;100562.19;5036614;28;1287;-89
2022/04/26 15:45:36;;;;;;;;;;;;;;;12.50;71.68;100565.72;5039699;28;1786;-89
2022/04/26 15:48:01;;;;;;;;;;;;;;;12.44;73.42;100564.13;5034398;28;1425;-90
2022/04/26 15:50:26;;;;;;;;;;;;;;;12.34;73.90;100555.97;5032121;28;1890;-89
2022/04/26 15:52:51;;;;;;;;;;;;;;;12.09;73.33;100549.66;5039686;28;1627;-89
2022/04/26 15:55:17;;;;;;;;;;;;;;;12.05;74.07;100553.28;5040051;28;1243;-88
2022/04/26 15:57:44;;;;;;;;;;;;;;;11.98;75.22;100553.63;5040090;28;1223;-88
2022/04/26 16:00:10;;;;;;;;;;;;;;;11.90;75.06;100559.72;5039355;28;1506;-89
2022/04/26 16:02:35;;;;;;;;;;;;;;;11.86;76.89;100568.81;5039545;28;1153;-89
2022/04/26 16:05:00;;;;;;;;;;;;;;;11.89;77.29;100570.97;5036415;28;1335;-89
2022/04/26 16:07:29;;;;;;;;;;;;;;;11.97;76.85;100567.63;5039113;28;1826;-88
2022/04/26 16:20:56;;;;;;;;;;;;;;;11.65;77.78;100587.31;5058714;28;631;-88
2022/04/26 16:23:21;;;;;;;;;;;;;;;11.76;77.69;100588.91;5039913;28;1338;-88
2022/04/26 16:25:46;;;;;;;;;;;;;;;11.78;76.47;100586.69;5057905;28;1398;-88
2022/04/26 16:28:11;;;;;;;;;;;;;;;11.95;73.04;100583.53;5039513;28;1266;-88
2022/04/26 16:30:38;;;;;;;;;;;;;;;11.98;75.39;100586.53;5039462;28;1902;-88
2022/04/26 16:33:07;;;;;;;;;;;;;;;12.11;74.22;100582.28;5040389;28;1468;-89
2022/04/26 16:35:40;;;;;;;;;;;;;;;12.37;74.41;100580.94;5039561;28;1285;-89
2022/04/26 16:41:03;;;;;;;;;;;;;;;12.50;73.32;100582.97;5050304;28;1323;-88
2022/04/26 16:43:36;;;;;;;;;;;;;;;12.39;72.70;100578.72;5041685;28;1796;-89
2022/04/26 16:46:03;;;;;;;;;;;;;;;12.28;73.56;100582.69;5049047;28;1446;-89
2022/04/26 16:48:29;;;;;;;;;;;;;;;12.21;74.76;100589.63;5057271;28;813;-89
2022/04/26 16:50:58;;;;;;;;;;;;;;;12.03;75.57;100596.63;5040262;28;1953;-90
2022/04/26 16:53:23;;;;;;;;;;;;;;;12.01;76.32;100591.44;5047288;28;1833;-89
2022/04/26 16:56:03;;;;;;;;;;;;;;;12.03;76.60;100586.47;5038235;28;1621;-89
2022/04/26 16:58:34;;;;;;;;;;;;;;;11.89;76.76;100587.44;5026705;28;1561;-89
2022/04/26 17:01:07;;;;;;;;;;;;;;;11.92;75.98;100584.91;5035760;28;1377;-89
2022/04/26 17:03:32;;;;;;;;;;;;;;;11.88;76.39;100583.88;5053243;28;1338;-89
2022/04/26 17:05:58;;;;;;;;;;;;;;;11.91;77.48;100590.72;5039321;28;1664;-88
2022/04/26 17:08:23;;;;;;;;;;;;;;;11.79;78.42;100598.47;5041577;28;1135;-88
2022/04/26 17:10:53;;;;;;;;;;;;;;;11.82;78.30;100597.91;5040973;28;1890;-89
2022/04/26 17:13:18;;;;;;;;;;;;;;;11.84;77.93;100592.94;5046456;28;1625;-88
2022/04/26 17:15:46;;;;;;;;;;;;;;;11.80;77.87;100603.69;5037693;28;1181;-89
2022/04/26 17:18:14;;;;;;;;;;;;;;;11.62;78.75;100602.41;5038038;28;1125;-88
2022/04/26 17:20:42;;;;;;;;;;;;;;;11.55;79.62;100601.91;5051496;28;1561;-88
2022/04/26 17:23:09;;;;;;;;;;;;;;;11.59;79.61;100604.88;5040409;28;1406;-89
2022/04/26 17:25:38;;;;;;;;;;;;;;;11.66;79.29;100608.94;5038340;28;1502;-88
2022/04/26 17:28:04;;;;;;;;;;;;;;;11.55;80.03;100615.63;5021278;28;1504;-89
2022/04/26 17:30:29;;;;;;;;;;;;;;;11.49;79.37;100611.25;5019790;28;1961;-89
2022/04/26 17:32:55;;;;;;;;;;;;;;;11.51;79.60;100616.47;5035059;28;1180;-89
2022/04/26 17:35:20;;;;;;;;;;;;;;;11.45;79.87;100618.44;5035627;28;1243;-90
2022/04/26 17:37:45;;;;;;;;;;;;;;;11.56;80.41;100616.44;5034903;28;1220;-90
2022/04/26 17:40:12;;;;;;;;;;;;;;;11.62;80.98;100620.78;5045759;28;1390;-88
2022/04/26 17:42:38;;;;;;;;;;;;;;;11.60;81.15;100623.81;5033161;28;1270;-89
2022/04/26 17:45:07;;;;;;;;;;;;;;;11.59;80.69;100627.66;5053905;28;1367;-88
2022/04/26 17:47:33;;;;;;;;;;;;;;;11.58;80.91;100627.94;5021592;28;1488;-89
2022/04/26 17:49:59;;;;;;;;;;;;;;;11.60;80.41;100636.69;5037843;28;1898;-89
2022/04/26 17:52:25;;;;;;;;;;;;;;;11.52;80.03;100640.03;5037616;28;1500;-90
2022/04/26 17:57:34;;;;;;;;;;;;;;;11.61;80.41;100641.06;5056797;28;1365;-89
2022/04/26 17:59:59;;;;;;;;;;;;;;;11.66;79.88;100641.03;5038253;28;1499;-89
2022/04/26 18:03:00;;;;;;;;;;;;;;;;;;;;;
2022/04/26 18:12:04;;;;;;;;;;;;;;;11.54;81.11;100657.84;4935443;29;1682;-88
2022/04/26 18:14:30;;;;;;;;;;;;;;;11.46;81.47;100661.19;4964610;28;1909;-89
2022/04/26 18:16:55;;;;;;;;;;;;;;;11.41;81.68;100663.94;4996286;28;1332;-89
2022/04/26 18:19:21;;;;;;;;;;;;;;;11.37;82.10;100665.59;5027487;28;1567;-88
2022/04/26 18:21:47;;;;;;;;;;;;;;;11.22;81.85;100673.91;5035605;28;1674;-88
2022/04/26 18:24:12;;;;;;;;;;;;;;;11.20;82.53;100676.09;5024602;28;1544;-88
2022/04/26 18:26:41;;;;;;;;;;;;;;;11.18;82.56;100678.28;5029241;28;1404;-88
2022/04/26 18:29:09;;;;;;;;;;;;;;;11.13;82.92;100676.41;5032163;28;1871;-88
2022/04/26 18:31:37;;;;;;;;;;;;;;;11.09;82.35;100680.78;5050876;28;1454;-89
2022/04/26 18:47:19;;;;;;;;;;;;;;;10.87;82.52;100704.97;4911148;29;1442;-90
2022/04/26 18:52:50;;;;;;;;;;;;;;;10.89;82.26;100700.00;4905631;28;1562;-90
2022/04/26 18:55:18;;;;;;;;;;;;;;;10.86;82.54;100720.59;5022607;28;1235;-90
2022/04/26 18:57:53;;;;;;;;;;;;;;;10.93;82.35;100723.84;5037534;28;1730;-90
2022/04/26 19:00:29;;;;;;;;;;;;;;;10.96;82.28;100714.25;5012953;28;1326;-90
2022/04/26 19:03:00;;;;;;;;;;;;;;;10.91;83.20;100728.78;5008731;28;1339;-89
2022/04/26 19:05:28;;;;;;;;;;;;;;;10.93;82.73;100726.59;5037611;28;1204;-88
2022/04/26 19:07:53;;;;;;;;;;;;;;;10.84;82.74;100733.72;5037383;28;1201;-88
2022/04/26 19:13:22;;;;;;;;;;;;;;;10.75;82.58;100743.59;5054932;28;1694;-89
2022/04/26 19:15:47;;;;;;;;;;;;;;;10.85;82.76;100750.97;5048706;28;1430;-89
2022/04/26 19:18:48;;;;;;;;;;;;;;;10.91;82.80;100750.69;5036049;28;1151;-90
2022/04/26 19:21:51;;;;;;;;;;;;;;;10.86;82.91;100752.63;5053689;28;1318;-89
2022/04/26 19:24:27;;;;;;;;;;;;;;;10.81;82.31;100761.63;5010904;28;1526;-90
2022/04/26 19:26:55;;;;;;;;;;;;;;;10.88;82.74;100761.38;5048738;28;1341;-90
2022/04/26 19:29:51;;;;;;;;;;;;;;;;;;;;;
2022/04/26 19:35:33;;;;;;;;;;;;;;;;;;;;;
2022/04/26 19:38:58;;;;;;;;;;;;;;;;;;;;;
2022/04/26 19:41:57;;;;;;;;;;;;;;;10.79;82.98;100783.03;4992910;28;1336;-90
2022/04/26 19:44:31;;;;;;;;;;;;;;;10.84;82.78;100790.41;4976590;28;1245;-90
2022/04/26 19:53:28;;;;;;;;;;;;;;;10.75;82.76;100795.59;5034933;28;1332;-90
2022/04/26 19:56:26;;;;;;;;;;;;;;;10.63;83.39;100795.88;5017634;28;1406;-90
2022/04/26 19:58:55;;;;;;;;;;;;;;;10.62;83.51;100796.16;5016861;28;1311;-89
2022/04/26 20:05:16;;;;;;;;;;;;;;;;;;;;;
2022/04/26 20:08:30;;;;;;;;;;;;;;;;;;;;;
2022/04/26 20:14:47;;;;;;;;;;;;;;;;;;;;;
2022/04/26 20:17:26;;;;;;;;;;;;;;;10.65;83.27;100805.72;4971329;28;1607;-90
2022/04/26 20:19:59;;;;;;;;;;;;;;;10.64;83.16;100799.44;5023572;28;1363;-91
2022/04/26 20:22:46;;;;;;;;;;;;;;;10.56;83.69;100809.00;5034541;28;1445;-90
2022/04/26 20:25:17;;;;;;;;;;;;;;;10.47;83.46;100820.78;5035121;28;1739;-90
2022/04/26 20:30:33;;;;;;;;;;;;;;;10.33;84.05;100828.69;5057103;28;1987;-90
2022/04/26 20:36:07;;;;;;;;;;;;;;;10.44;83.14;100832.28;5058076;28;667;-90
2022/04/26 20:38:38;;;;;;;;;;;;;;;10.45;83.51;100829.28;5057266;28;947;-90
2022/04/26 20:41:04;;;;;;;;;;;;;;;10.39;83.88;100832.25;5039296;28;1269;-90